Time;durP1;ratioP1;P1;durP2;ratioP2;P2;SDS_P1;SDS_P2;PMS_P1;PMS_P2;Temp;Humidity;BMP_temperature;BMP_pressure;BME280_temperature;BME280_humidity;BME280_pressure;Samples;Min_cycle;Max_cycle;Signal;HPM_P1;HPM_P2
2023/07/01 06:34:37;;;;;;;;;;;;;;;23.03;49.89;96637.00;4255532;27;10200;-65
2023/07/01 06:36:40;;;;;;;;;;;;;;;23.35;49.04;96636.59;4243580;27;6670;-66
2023/07/01 06:38:43;;;;;;;;;;;;;;;23.57;49.28;96638.09;4245078;27;5252;-65
2023/07/01 06:40:46;;;;;;;;;;;;;;;23.72;48.80;96636.09;4251252;27;5836;-65
2023/07/01 06:42:50;;;;;;;;;;;;;;;23.81;48.55;96642.53;4250083;27;5692;-66
2023/07/01 06:44:53;;;;;;;;;;;;;;;23.86;48.70;96632.78;4251147;27;5872;-66
2023/07/01 06:46:56;;;;;;;;;;;;;;;23.95;47.96;96631.88;4242123;27;5614;-65
2023/07/01 06:48:59;;;;;;;;;;;;;;;24.05;48.19;96637.22;4247080;27;5815;-66
2023/07/01 06:51:04;;;;;;;;;;;;;;;24.08;47.87;96633.94;4228523;28;5859;-65
2023/07/01 06:53:07;;;;;;;;;;;;;;;24.18;48.04;96633.03;4246870;27;5672;-65
2023/07/01 06:55:13;;;;;;;;;;;;;;;24.27;47.64;96631.34;4246713;27;6168;-65
2023/07/01 06:57:16;;;;;;;;;;;;;;;24.36;47.62;96629.69;4250195;27;5167;-65
2023/07/01 06:59:19;;;;;;;;;;;;;;;24.47;47.41;96634.97;4249108;27;5597;-65
2023/07/01 07:01:22;;;;;;;;;;;;;;;24.55;47.44;96626.22;4246763;27;5609;-65
2023/07/01 07:03:25;;;;;;;;;;;;;;;24.60;47.04;96618.88;4247393;27;5597;-64
2023/07/01 07:05:28;;;;;;;;;;;;;;;24.65;47.08;96626.13;4246927;27;5601;-66
2023/07/01 07:07:32;;;;;;;;;;;;;;;24.65;47.13;96618.00;4246897;27;5597;-65
2023/07/01 07:09:35;;;;;;;;;;;;;;;24.67;47.10;96627.44;4246422;27;5707;-66
2023/07/01 07:11:40;;;;;;;;;;;;;;;24.67;46.72;96630.16;4246569;27;5597;-66
2023/07/01 07:13:43;;;;;;;;;;;;;;;24.67;46.51;96621.22;4246775;27;5856;-66
2023/07/01 07:15:45;;;;;;;;;;;;;;;24.67;46.53;96627.44;4247179;27;5808;-66
2023/07/01 07:17:48;;;;;;;;;;;;;;;24.70;46.63;96627.97;4246678;27;5667;-66
2023/07/01 07:19:51;;;;;;;;;;;;;;;24.67;46.55;96632.84;4246698;27;5684;-66
2023/07/01 07:21:54;;;;;;;;;;;;;;;24.68;46.73;96631.75;4243519;27;5616;-66
2023/07/01 07:23:59;;;;;;;;;;;;;;;24.69;46.71;96629.88;4240721;27;5609;-65
2023/07/01 07:26:07;;;;;;;;;;;;;;;24.67;46.54;96632.84;4245582;27;5674;-65
2023/07/01 07:28:10;;;;;;;;;;;;;;;24.64;46.57;96635.31;4243331;27;5651;-64
2023/07/01 07:30:14;;;;;;;;;;;;;;;24.61;46.56;96634.00;4241378;27;5716;-66
2023/07/01 07:32:17;;;;;;;;;;;;;;;24.60;46.61;96637.00;4232260;27;5675;-66
2023/07/01 07:34:20;;;;;;;;;;;;;;;24.58;46.58;96629.19;4240900;27;5605;-65
2023/07/01 07:36:23;;;;;;;;;;;;;;;24.57;46.46;96632.16;4235092;28;5675;-66
2023/07/01 07:38:26;;;;;;;;;;;;;;;24.56;46.55;96630.53;4234820;28;5712;-68
2023/07/01 07:40:30;;;;;;;;;;;;;;;24.54;46.52;96630.81;4235018;28;5737;-66
2023/07/01 07:42:33;;;;;;;;;;;;;;;24.53;46.48;96625.72;4234709;28;5705;-66
2023/07/01 07:44:36;;;;;;;;;;;;;;;24.49;46.58;96624.69;4227003;28;5696;-65
2023/07/01 07:46:39;;;;;;;;;;;;;;;24.43;46.62;96617.72;4232935;28;5771;-65
2023/07/01 07:48:42;;;;;;;;;;;;;;;24.38;46.52;96623.97;4228749;27;5735;-65
2023/07/01 07:50:46;;;;;;;;;;;;;;;24.35;46.29;96619.97;4225071;28;5699;-66
2023/07/01 07:52:49;;;;;;;;;;;;;;;24.34;46.18;96626.44;4229509;28;5820;-66
2023/07/01 07:54:52;;;;;;;;;;;;;;;24.30;46.26;96622.69;4234669;28;6590;-65
2023/07/01 07:56:59;;;;;;;;;;;;;;;24.24;46.69;96618.41;4233355;28;5609;-65
2023/07/01 07:59:02;;;;;;;;;;;;;;;24.21;46.26;96613.56;4230497;28;5593;-65
2023/07/01 08:01:05;;;;;;;;;;;;;;;24.21;46.62;96623.56;4232654;28;5702;-65
2023/07/01 08:03:07;;;;;;;;;;;;;;;24.17;46.54;96620.63;4234603;28;5586;-66
2023/07/01 08:05:11;;;;;;;;;;;;;;;24.16;46.31;96615.53;4234528;27;5728;-66
2023/07/01 08:07:14;;;;;;;;;;;;;;;24.10;46.27;96612.84;4234550;28;5847;-66
2023/07/01 08:09:17;;;;;;;;;;;;;;;24.08;46.27;96606.94;4232393;28;5844;-66
2023/07/01 08:11:20;;;;;;;;;;;;;;;24.06;46.23;96605.59;4235089;28;5828;-65
2023/07/01 08:13:24;;;;;;;;;;;;;;;24.03;46.64;96608.88;4233275;27;5714;-65
2023/07/01 08:15:27;;;;;;;;;;;;;;;24.02;46.39;96604.56;4228099;28;5715;-66
2023/07/01 08:17:30;;;;;;;;;;;;;;;23.99;46.21;96599.72;4219360;28;5967;-66
2023/07/01 08:19:33;;;;;;;;;;;;;;;23.99;46.55;96600.53;4231650;28;5605;-66
2023/07/01 08:21:37;;;;;;;;;;;;;;;23.96;46.59;96597.59;4228272;28;5743;-66
2023/07/01 08:23:41;;;;;;;;;;;;;;;23.96;46.57;96594.91;4230254;27;5692;-66
2023/07/01 08:25:44;;;;;;;;;;;;;;;23.95;46.34;96595.97;4230946;28;5673;-65
2023/07/01 08:27:47;;;;;;;;;;;;;;;23.95;46.22;96604.88;4212353;28;5765;-66
2023/07/01 08:29:51;;;;;;;;;;;;;;;23.94;46.31;96605.19;4224251;28;5823;-66
2023/07/01 08:31:54;;;;;;;;;;;;;;;23.93;46.13;96600.88;4226048;27;5883;-66
2023/07/01 08:33:57;;;;;;;;;;;;;;;23.92;46.28;96600.06;4221065;28;6247;-66
2023/07/01 08:36:00;;;;;;;;;;;;;;;23.91;45.88;96597.66;4218421;28;5620;-66
2023/07/01 08:38:03;;;;;;;;;;;;;;;23.90;46.14;96594.16;4225791;28;5589;-64
2023/07/01 08:40:07;;;;;;;;;;;;;;;23.94;46.00;96588.97;4229400;27;6646;-66
2023/07/01 08:42:16;;;;;;;;;;;;;;;24.00;46.25;96585.13;4233211;28;5593;-66
2023/07/01 08:44:20;;;;;;;;;;;;;;;24.06;46.06;96584.00;4229650;28;5625;-66
2023/07/01 08:46:28;;;;;;;;;;;;;;;24.15;45.64;96592.31;4229528;27;6008;-66
2023/07/01 08:48:31;;;;;;;;;;;;;;;24.20;45.58;96589.53;4229574;28;5600;-66
2023/07/01 08:50:43;;;;;;;;;;;;;;;24.22;45.85;96585.47;4225008;28;6302;-65
2023/07/01 08:52:47;;;;;;;;;;;;;;;24.30;45.57;96584.03;4207404;28;5732;-66
2023/07/01 08:54:50;;;;;;;;;;;;;;;24.34;45.84;96579.69;4226430;28;5593;-66
2023/07/01 08:56:53;;;;;;;;;;;;;;;24.38;45.93;96580.75;4233611;27;5748;-66
2023/07/01 08:58:56;;;;;;;;;;;;;;;24.35;45.58;96574.03;4227989;28;5601;-65
2023/07/01 09:00:59;;;;;;;;;;;;;;;24.37;45.89;96581.84;4226777;28;5728;-65
2023/07/01 09:03:04;;;;;;;;;;;;;;;24.40;45.61;96578.56;4224191;28;5594;-65
2023/07/01 09:05:07;;;;;;;;;;;;;;;24.40;45.87;96575.88;4225482;28;5597;-65
2023/07/01 09:07:10;;;;;;;;;;;;;;;24.42;45.69;96575.56;4231628;28;5808;-65
2023/07/01 09:09:13;;;;;;;;;;;;;;;24.43;45.90;96569.06;4227542;28;6071;-65
2023/07/01 09:11:17;;;;;;;;;;;;;;;24.44;45.90;96571.50;4230962;28;5721;-65
2023/07/01 09:13:19;;;;;;;;;;;;;;;24.45;46.00;96558.78;4224850;28;5628;-65
2023/07/01 09:15:22;;;;;;;;;;;;;;;24.45;45.52;96569.59;4229726;28;5813;-77
2023/07/01 09:17:30;;;;;;;;;;;;;;;24.45;46.15;96566.88;4232051;27;5800;-73
2023/07/01 09:19:36;;;;;;;;;;;;;;;24.45;45.80;96567.69;4227379;27;5740;-62
2023/07/01 09:21:39;;;;;;;;;;;;;;;24.47;45.51;96568.22;4217930;28;5730;-62
2023/07/01 09:23:42;;;;;;;;;;;;;;;24.51;45.64;96563.06;4219415;27;5619;-63
2023/07/01 09:25:45;;;;;;;;;;;;;;;24.51;45.88;96566.56;4225057;27;5691;-62
2023/07/01 09:27:49;;;;;;;;;;;;;;;24.52;45.83;96568.16;4223677;27;5712;-62
2023/07/01 09:29:52;;;;;;;;;;;;;;;24.55;45.51;96562.19;4229378;27;5964;-62
2023/07/01 09:31:55;;;;;;;;;;;;;;;24.57;45.57;96561.88;4227543;28;5645;-62
2023/07/01 09:34:01;;;;;;;;;;;;;;;24.59;45.72;96565.13;4229773;27;5848;-62
2023/07/01 09:36:07;;;;;;;;;;;;;;;24.59;45.53;96560.53;4228544;28;5697;-62
2023/07/01 09:38:10;;;;;;;;;;;;;;;24.54;45.51;96557.06;4228148;28;5593;-62
2023/07/01 09:40:20;;;;;;;;;;;;;;;24.53;45.50;96558.16;4229173;28;5608;-61
2023/07/01 09:42:23;;;;;;;;;;;;;;;24.52;45.57;96549.25;4220600;27;5245;-62
2023/07/01 09:44:27;;;;;;;;;;;;;;;24.53;45.75;96550.84;4220972;27;5868;-62
2023/07/01 09:46:42;;;;;;;;;;;;;;;24.55;45.54;96547.88;4221308;28;5594;-72
2023/07/01 09:48:55;;;;;;;;;;;;;;;24.55;45.33;96540.56;4222274;27;7814;-68
2023/07/01 09:51:02;;;;;;;;;;;;;;;24.57;45.42;96551.06;4227102;27;5617;-69
2023/07/01 09:53:19;;;;;;;;;;;;;;;24.55;45.41;96547.88;4233468;28;5825;-66
2023/07/01 09:55:22;;;;;;;;;;;;;;;24.55;45.08;96547.88;4234056;27;6284;-67
2023/07/01 09:57:26;;;;;;;;;;;;;;;24.55;45.23;96548.66;4232181;27;5601;-72
2023/07/01 09:59:29;;;;;;;;;;;;;;;24.58;45.27;96547.31;4230632;27;6263;-69
2023/07/01 10:01:32;;;;;;;;;;;;;;;24.60;45.10;96539.72;4226294;27;6828;-78
2023/07/01 10:03:39;;;;;;;;;;;;;;;24.61;45.13;96546.72;4228739;27;5812;-69
2023/07/01 10:05:44;;;;;;;;;;;;;;;24.63;45.03;96549.94;4225025;27;5615;-79
2023/07/01 10:07:47;;;;;;;;;;;;;;;24.67;45.09;96543.66;4228068;27;5745;-72
2023/07/01 10:09:52;;;;;;;;;;;;;;;24.66;44.86;96546.66;4228309;27;5647;-74
2023/07/01 10:11:56;;;;;;;;;;;;;;;24.66;44.98;96543.94;4220580;27;5707;-68
2023/07/01 10:14:03;;;;;;;;;;;;;;;24.67;44.72;96537.44;4222906;27;5700;-75
2023/07/01 10:16:07;;;;;;;;;;;;;;;24.69;44.18;96543.38;4229251;27;5679;-67
2023/07/01 10:18:21;;;;;;;;;;;;;;;24.70;44.38;96541.50;4226244;27;5889;-73
2023/07/01 10:20:26;;;;;;;;;;;;;;;24.71;44.72;96541.19;4230066;27;5769;-76
2023/07/01 10:22:31;;;;;;;;;;;;;;;24.68;44.30;96541.75;4226435;28;5604;-73
2023/07/01 10:24:38;;;;;;;;;;;;;;;24.69;44.56;96537.97;4237014;27;5657;-76
2023/07/01 10:26:47;;;;;;;;;;;;;;;24.71;44.39;96541.19;4233539;27;5605;-73
2023/07/01 10:28:50;;;;;;;;;;;;;;;24.74;44.29;96534.41;4232521;28;5605;-79
2023/07/01 10:31:14;;;;;;;;;;;;;;;24.74;44.22;96535.19;4224192;27;5768;-76
2023/07/01 10:33:51;;;;;;;;;;;;;;;24.75;44.03;96536.81;4232249;28;5644;-70
2023/07/01 10:36:02;;;;;;;;;;;;;;;24.79;43.87;96542.44;4227972;28;6631;-66
2023/07/01 10:38:20;;;;;;;;;;;;;;;24.81;43.61;96529.44;4229433;27;5613;-68
2023/07/01 10:40:43;;;;;;;;;;;;;;;24.83;43.73;96533.47;4232701;28;5658;-66
2023/07/01 10:42:48;;;;;;;;;;;;;;;24.84;43.29;96537.78;4229398;28;5660;-67
2023/07/01 10:44:51;;;;;;;;;;;;;;;24.85;43.27;96539.38;4229101;28;5608;-67
2023/07/01 10:47:16;;;;;;;;;;;;;;;24.86;43.47;96538.28;4230735;28;5700;-68
2023/07/01 10:49:19;;;;;;;;;;;;;;;24.88;43.37;96538.78;4221208;28;5600;-67
2023/07/01 10:51:24;;;;;;;;;;;;;;;24.90;43.32;96536.59;4229716;28;5902;-67
2023/07/01 10:53:27;;;;;;;;;;;;;;;24.92;43.07;96539.84;4229609;27;5102;-67
2023/07/01 10:55:40;;;;;;;;;;;;;;;24.92;43.04;96528.22;4234106;27;5883;-68
2023/07/01 10:58:18;;;;;;;;;;;;;;;24.90;42.99;96539.31;4229991;27;5590;-67
2023/07/01 11:00:38;;;;;;;;;;;;;;;24.93;42.58;96538.75;4233709;28;5692;-67
2023/07/01 11:02:41;;;;;;;;;;;;;;;24.97;42.93;96538.97;4225349;28;5629;-67
2023/07/01 11:05:04;;;;;;;;;;;;;;;25.00;42.40;96521.34;4226511;28;5612;-67
2023/07/01 11:07:07;;;;;;;;;;;;;;;25.02;42.28;96524.59;4226903;28;5838;-67
2023/07/01 11:09:11;;;;;;;;;;;;;;;25.03;42.23;96531.59;4228687;28;5739;-67
2023/07/01 11:11:20;;;;;;;;;;;;;;;25.05;42.42;96524.03;4235952;28;5700;-67
2023/07/01 11:13:26;;;;;;;;;;;;;;;25.06;42.27;96521.03;4229109;27;5695;-67
2023/07/01 11:15:28;;;;;;;;;;;;;;;25.09;42.30;96519.63;4236520;28;5577;-67
2023/07/01 11:17:31;;;;;;;;;;;;;;;25.10;42.29;96526.63;4236722;28;5692;-68
2023/07/01 11:19:34;;;;;;;;;;;;;;;25.11;42.25;96520.13;4236717;28;5609;-67
2023/07/01 11:21:38;;;;;;;;;;;;;;;25.13;41.87;96521.44;4233338;28;5660;-67
2023/07/01 11:23:43;;;;;;;;;;;;;;;25.15;42.24;96519.28;4233420;28;5619;-67
2023/07/01 11:25:47;;;;;;;;;;;;;;;25.16;42.16;96514.66;4236449;28;7545;-67
2023/07/01 11:27:50;;;;;;;;;;;;;;;25.18;42.27;96512.47;4236343;28;5604;-67
2023/07/01 11:29:54;;;;;;;;;;;;;;;25.23;41.95;96515.09;4233802;27;5807;-66
2023/07/01 11:31:59;;;;;;;;;;;;;;;25.23;41.87;96510.47;4229300;27;5660;-70
2023/07/01 11:34:02;;;;;;;;;;;;;;;25.27;41.56;96510.72;4224855;27;5585;-74
2023/07/01 11:36:06;;;;;;;;;;;;;;;25.34;42.09;96515.72;4230209;27;5609;-67
2023/07/01 11:38:24;;;;;;;;;;;;;;;25.37;41.83;96507.03;4231124;27;5612;-67
2023/07/01 11:40:39;;;;;;;;;;;;;;;25.39;41.51;96502.16;4233200;27;5640;-73
2023/07/01 11:42:42;;;;;;;;;;;;;;;25.41;41.88;96506.16;4234733;27;5728;-82
2023/07/01 11:44:45;;;;;;;;;;;;;;;25.44;41.82;96507.47;4241514;27;5589;-76
2023/07/01 11:46:50;;;;;;;;;;;;;;;25.45;41.71;96500.94;4228589;27;5656;-85
2023/07/01 11:48:53;;;;;;;;;;;;;;;25.45;41.77;96500.94;4235964;27;5744;-75
2023/07/01 11:50:56;;;;;;;;;;;;;;;25.44;41.77;96502.84;4232532;28;5854;-74
2023/07/01 11:53:06;;;;;;;;;;;;;;;25.44;41.69;96507.47;4235768;27;5870;-72
2023/07/01 11:55:09;;;;;;;;;;;;;;;25.44;41.46;96502.84;4238257;27;5625;-79
2023/07/01 11:57:13;;;;;;;;;;;;;;;25.44;41.40;96500.16;4236513;28;5598;-74
2023/07/01 11:59:29;;;;;;;;;;;;;;;25.45;41.77;96495.53;4226261;27;5777;-72
2023/07/01 12:01:33;;;;;;;;;;;;;;;25.42;41.84;96496.94;4231550;27;5676;-72
2023/07/01 12:03:38;;;;;;;;;;;;;;;25.40;41.28;96496.44;4222764;27;5601;-68
2023/07/01 12:05:43;;;;;;;;;;;;;;;25.39;41.67;96502.16;4226018;27;5600;-73
2023/07/01 12:07:57;;;;;;;;;;;;;;;25.35;41.28;96496.50;4233633;28;5652;-70
2023/07/01 12:10:20;;;;;;;;;;;;;;;25.36;41.38;96498.09;4226912;27;5937;-74
2023/07/01 12:12:37;;;;;;;;;;;;;;;25.36;41.52;96502.72;4229329;27;5849;-74
2023/07/01 12:14:40;;;;;;;;;;;;;;;25.34;41.64;96500.31;4233313;27;6963;-74
2023/07/01 12:16:43;;;;;;;;;;;;;;;25.33;41.76;96501.41;4228343;27;5787;-74
2023/07/01 12:18:48;;;;;;;;;;;;;;;25.34;41.58;96508.41;4229633;27;5711;-74
2023/07/01 12:20:50;;;;;;;;;;;;;;;25.35;41.93;96499.19;4227879;27;5708;-74
2023/07/01 12:22:54;;;;;;;;;;;;;;;25.36;41.58;96505.41;4229336;27;5740;-71
2023/07/01 12:24:58;;;;;;;;;;;;;;;25.36;41.83;96502.72;4228434;27;5728;-74
2023/07/01 12:27:05;;;;;;;;;;;;;;;25.35;41.95;96496.50;4234208;27;5601;-72
2023/07/01 12:29:08;;;;;;;;;;;;;;;25.35;41.97;96496.50;4235550;28;5601;-72
2023/07/01 12:31:12;;;;;;;;;;;;;;;25.34;42.11;96499.50;4220580;27;5623;-72
2023/07/01 12:33:15;;;;;;;;;;;;;;;25.34;41.95;96502.22;4236861;27;5716;-73
2023/07/01 12:35:19;;;;;;;;;;;;;;;25.32;42.04;96497.09;4231696;27;5813;-73
2023/07/01 12:37:23;;;;;;;;;;;;;;;25.33;42.15;96498.69;4234678;27;5653;-72
2023/07/01 12:39:26;;;;;;;;;;;;;;;25.32;42.24;96502.50;4223657;27;6508;-73
2023/07/01 12:41:30;;;;;;;;;;;;;;;25.32;42.05;96496.28;4220466;27;5758;-68
2023/07/01 12:43:33;;;;;;;;;;;;;;;25.31;41.86;96500.09;4228889;28;5876;-68
2023/07/01 12:45:35;;;;;;;;;;;;;;;25.27;42.27;96494.47;4230937;28;5717;-67
2023/07/01 12:47:40;;;;;;;;;;;;;;;25.28;42.29;96492.56;4231191;28;5157;-66
2023/07/01 12:49:43;;;;;;;;;;;;;;;25.25;42.06;96491.25;4223271;28;5782;-68
2023/07/01 12:51:47;;;;;;;;;;;;;;;25.25;42.17;96488.53;4229335;28;5601;-67
2023/07/01 12:53:50;;;;;;;;;;;;;;;25.24;42.30;96490.44;4229803;27;5692;-66
2023/07/01 12:56:09;;;;;;;;;;;;;;;25.25;42.24;96486.63;4229601;27;5669;-67
2023/07/01 12:58:12;;;;;;;;;;;;;;;25.24;42.64;96490.44;4219691;28;5592;-67
2023/07/01 13:00:15;;;;;;;;;;;;;;;25.24;42.58;96495.03;4222130;28;5947;-67
2023/07/01 13:02:18;;;;;;;;;;;;;;;25.24;42.43;96486.94;4230923;27;5585;-68
2023/07/01 13:04:21;;;;;;;;;;;;;;;25.20;42.50;96488.63;4232880;28;5593;-68
2023/07/01 13:06:28;;;;;;;;;;;;;;;25.17;42.20;96481.91;4233417;28;5087;-68
2023/07/01 13:08:32;;;;;;;;;;;;;;;25.20;42.28;96483.22;4233112;28;5871;-68
2023/07/01 13:10:39;;;;;;;;;;;;;;;25.19;42.53;96487.81;4232476;28;5585;-67
2023/07/01 13:12:42;;;;;;;;;;;;;;;25.16;42.34;96480.31;4232131;27;5596;-69
2023/07/01 13:14:45;;;;;;;;;;;;;;;25.19;42.20;96487.81;4233075;28;5696;-69
2023/07/01 13:16:48;;;;;;;;;;;;;;;25.20;42.71;96489.44;4233452;27;5836;-68
2023/07/01 13:18:51;;;;;;;;;;;;;;;25.23;42.30;96493.44;4224933;28;5799;-67
2023/07/01 13:20:54;;;;;;;;;;;;;;;25.23;42.66;96479.91;4230853;28;5786;-67
2023/07/01 13:23:00;;;;;;;;;;;;;;;25.23;42.65;96482.63;4231976;28;5585;-68
2023/07/01 13:25:06;;;;;;;;;;;;;;;25.24;42.38;96486.94;4232934;28;5696;-67
2023/07/01 13:27:13;;;;;;;;;;;;;;;25.22;42.46;96483.72;4228253;28;5695;-68
2023/07/01 13:29:19;;;;;;;;;;;;;;;25.22;42.47;96491.84;4228427;27;5773;-68
2023/07/01 13:31:23;;;;;;;;;;;;;;;25.20;42.40;96486.72;4232763;28;6266;-67
2023/07/01 13:33:26;;;;;;;;;;;;;;;25.19;42.56;96482.41;4231956;28;5830;-67
2023/07/01 13:35:30;;;;;;;;;;;;;;;25.17;42.90;96490.03;4232149;27;5673;-67
2023/07/01 13:37:33;;;;;;;;;;;;;;;25.16;42.66;96485.72;4232259;28;5656;-67
2023/07/01 13:39:42;;;;;;;;;;;;;;;25.15;42.68;96488.72;4229221;28;5906;-68
2023/07/01 13:41:46;;;;;;;;;;;;;;;25.13;42.92;96488.19;4227816;27;6387;-68
2023/07/01 13:43:49;;;;;;;;;;;;;;;25.12;42.90;96498.19;4232909;28;5210;-69
2023/07/01 13:45:52;;;;;;;;;;;;;;;25.11;42.62;96490.38;4236072;27;5582;-68
2023/07/01 13:47:55;;;;;;;;;;;;;;;25.07;43.02;96494.78;4229092;27;5625;-68
2023/07/01 13:49:58;;;;;;;;;;;;;;;25.03;42.93;96494.56;4232313;28;5593;-68
2023/07/01 13:52:02;;;;;;;;;;;;;;;25.02;43.11;96494.84;4232278;27;5699;-68
2023/07/01 13:54:08;;;;;;;;;;;;;;;25.02;42.90;96494.84;4231004;28;5787;-68
2023/07/01 13:56:11;;;;;;;;;;;;;;;25.05;43.21;96496.97;4226918;28;5620;-68
2023/07/01 13:58:16;;;;;;;;;;;;;;;25.05;43.19;96492.38;4228885;28;5800;-67
2023/07/01 14:00:39;;;;;;;;;;;;;;;25.04;43.22;96496.19;4231231;28;5712;-68
2023/07/01 14:02:43;;;;;;;;;;;;;;;25.03;43.00;96496.44;4229169;27;5706;-68
2023/07/01 14:04:46;;;;;;;;;;;;;;;25.00;43.29;96495.09;4235628;27;5593;-68
2023/07/01 14:06:50;;;;;;;;;;;;;;;24.97;43.55;96496.50;4226606;28;5608;-68
2023/07/01 14:08:53;;;;;;;;;;;;;;;24.97;43.66;96495.69;4229242;27;5631;-68
2023/07/01 14:10:56;;;;;;;;;;;;;;;24.97;43.26;96490.28;4226364;28;5701;-68
2023/07/01 14:13:00;;;;;;;;;;;;;;;24.97;43.38;96488.38;4229306;28;5635;-67
2023/07/01 14:15:07;;;;;;;;;;;;;;;25.00;43.79;96491.59;4228099;28;5612;-67
2023/07/01 14:17:18;;;;;;;;;;;;;;;25.00;43.84;96489.69;4227037;27;5592;-68
2023/07/01 14:19:21;;;;;;;;;;;;;;;25.01;43.91;96490.50;4222594;27;5634;-68
2023/07/01 14:21:30;;;;;;;;;;;;;;;25.00;44.10;96492.41;4230239;28;5612;-67
2023/07/01 14:23:35;;;;;;;;;;;;;;;25.00;43.86;96488.88;4219053;27;5628;-67
2023/07/01 14:25:44;;;;;;;;;;;;;;;24.97;44.05;96485.69;4201162;28;5841;-69
2023/07/01 14:27:47;;;;;;;;;;;;;;;24.95;43.85;96493.28;4221745;27;6432;-70
2023/07/01 14:29:50;;;;;;;;;;;;;;;24.93;44.24;96489.28;4226217;27;5785;-68
2023/07/01 14:31:56;;;;;;;;;;;;;;;24.89;44.35;96480.91;4235076;27;5850;-68
2023/07/01 14:34:00;;;;;;;;;;;;;;;24.91;44.45;96484.13;4224941;27;5833;-68
2023/07/01 14:36:10;;;;;;;;;;;;;;;24.89;44.07;96483.63;4229552;27;5940;-67
2023/07/01 14:38:14;;;;;;;;;;;;;;;24.88;44.40;96479.31;4225852;27;5680;-68
2023/07/01 14:40:17;;;;;;;;;;;;;;;24.87;44.57;96482.31;4228729;27;5590;-68
2023/07/01 14:42:24;;;;;;;;;;;;;;;24.85;44.39;96477.19;4231023;27;5677;-67
2023/07/01 14:44:27;;;;;;;;;;;;;;;24.85;44.31;96479.91;4231931;27;5848;-67
2023/07/01 14:46:32;;;;;;;;;;;;;;;24.86;44.71;96489.63;4237481;27;5677;-66
2023/07/01 14:48:36;;;;;;;;;;;;;;;24.85;44.86;96488.00;4231330;28;5692;-66
2023/07/01 14:50:39;;;;;;;;;;;;;;;24.85;44.82;96481.81;4228530;27;5680;-66
2023/07/01 14:52:42;;;;;;;;;;;;;;;24.86;44.75;96476.09;4226997;27;5717;-66
2023/07/01 14:54:45;;;;;;;;;;;;;;;24.84;44.87;96475.59;4237525;27;5776;-66
2023/07/01 14:56:51;;;;;;;;;;;;;;;24.81;45.10;96476.19;4228377;27;5681;-66
2023/07/01 14:58:55;;;;;;;;;;;;;;;24.81;45.20;96476.19;4228630;27;5770;-67
2023/07/01 15:00:57;;;;;;;;;;;;;;;24.81;45.19;96476.19;4221081;27;5683;-67
2023/07/01 15:03:00;;;;;;;;;;;;;;;24.81;44.82;96476.19;4220900;27;5737;-67
2023/07/01 15:05:05;;;;;;;;;;;;;;;24.80;45.47;96471.03;4205668;28;6021;-67
2023/07/01 15:07:08;;;;;;;;;;;;;;;24.80;45.51;96479.97;4225641;27;5688;-70
2023/07/01 15:09:11;;;;;;;;;;;;;;;24.77;45.59;96475.16;4226225;28;5717;-73
2023/07/01 15:11:15;;;;;;;;;;;;;;;24.78;45.58;96470.53;4223663;27;5848;-72
2023/07/01 15:13:18;;;;;;;;;;;;;;;24.78;45.86;96465.94;4231187;28;5672;-71
2023/07/01 15:15:21;;;;;;;;;;;;;;;24.77;45.47;96475.16;4225950;28;5700;-69
2023/07/01 15:17:24;;;;;;;;;;;;;;;24.80;45.76;96468.34;4217133;28;5759;-69
2023/07/01 15:19:27;;;;;;;;;;;;;;;24.81;45.64;96464.56;4222675;28;5689;-70
2023/07/01 15:21:31;;;;;;;;;;;;;;;24.80;45.77;96466.44;4223472;27;5707;-70
2023/07/01 15:23:34;;;;;;;;;;;;;;;24.80;45.57;96473.75;4221994;27;5762;-68
2023/07/01 15:25:37;;;;;;;;;;;;;;;24.78;45.66;96471.34;4232392;28;5593;-67
2023/07/01 15:27:42;;;;;;;;;;;;;;;24.77;45.79;96469.75;4229104;27;5687;-68
2023/07/01 15:29:45;;;;;;;;;;;;;;;24.75;46.02;96473.84;4232625;28;5622;-68
2023/07/01 15:31:48;;;;;;;;;;;;;;;24.73;46.04;96468.72;4224380;27;5621;-69
2023/07/01 15:33:51;;;;;;;;;;;;;;;24.72;45.98;96467.13;4224800;27;5679;-69
2023/07/01 15:35:54;;;;;;;;;;;;;;;24.72;46.13;96472.53;4226012;27;5613;-73
2023/07/01 15:37:58;;;;;;;;;;;;;;;24.70;45.75;96474.72;4232573;28;5891;-66
2023/07/01 15:40:01;;;;;;;;;;;;;;;24.71;46.17;96478.22;4228174;27;5696;-70
2023/07/01 15:42:05;;;;;;;;;;;;;;;24.70;45.93;96472.03;4225483;27;6275;-67
2023/07/01 15:44:08;;;;;;;;;;;;;;;24.69;46.26;96467.72;4223457;27;6540;-70
2023/07/01 15:46:11;;;;;;;;;;;;;;;24.68;46.29;96476.88;4225705;27;5872;-68
2023/07/01 15:48:14;;;;;;;;;;;;;;;24.66;46.09;96479.06;4230270;27;5743;-67
2023/07/01 15:50:17;;;;;;;;;;;;;;;24.66;46.22;96479.88;4226412;27;5692;-68
2023/07/01 15:52:21;;;;;;;;;;;;;;;24.66;46.50;96473.69;4227070;27;5710;-67
2023/07/01 15:54:25;;;;;;;;;;;;;;;24.65;46.48;96477.47;4227517;27;5962;-71
2023/07/01 15:56:28;;;;;;;;;;;;;;;24.68;46.48;96474.19;4207422;28;5728;-71
2023/07/01 15:58:31;;;;;;;;;;;;;;;24.67;46.54;96472.56;4225531;27;5660;-70
2023/07/01 16:00:34;;;;;;;;;;;;;;;24.67;46.61;96469.88;4231658;27;5696;-70
2023/07/01 16:02:38;;;;;;;;;;;;;;;24.67;46.60;96467.16;4227954;27;5644;-68
2023/07/01 16:04:41;;;;;;;;;;;;;;;24.67;46.89;96467.16;4229842;27;5644;-70
2023/07/01 16:06:46;;;;;;;;;;;;;;;24.67;46.53;96467.97;4228339;27;5612;-67
2023/07/01 16:08:50;;;;;;;;;;;;;;;24.64;46.75;96465.06;4228872;27;5695;-68
2023/07/01 16:10:54;;;;;;;;;;;;;;;24.64;46.62;96459.66;4229477;27;5712;-66
2023/07/01 16:12:58;;;;;;;;;;;;;;;24.63;46.72;96463.44;4227134;27;5691;-66
2023/07/01 16:15:04;;;;;;;;;;;;;;;24.63;46.68;96469.66;4226693;27;5115;-68
2023/07/01 16:17:08;;;;;;;;;;;;;;;24.61;46.65;96461.03;4228337;27;5584;-77
2023/07/01 16:19:15;;;;;;;;;;;;;;;24.61;46.75;96463.75;4230009;27;5720;-77
2023/07/01 16:21:25;;;;;;;;;;;;;;;24.60;47.13;96466.75;4230253;27;5728;-78
2023/07/01 16:23:37;;;;;;;;;;;;;;;24.61;46.96;96473.75;4228173;27;5819;-78
2023/07/01 16:25:41;;;;;;;;;;;;;;;24.59;46.88;96474.06;4210508;28;5823;-79
2023/07/01 16:27:46;;;;;;;;;;;;;;;24.60;47.03;96466.75;4228181;27;5735;-78
2023/07/01 16:29:54;;;;;;;;;;;;;;;24.62;46.89;96472.66;4230359;28;5778;-78
2023/07/01 16:31:58;;;;;;;;;;;;;;;24.61;47.15;96469.16;4228984;28;5741;-78
2023/07/01 16:34:01;;;;;;;;;;;;;;;24.61;47.33;96469.16;4230339;28;5135;-77
2023/07/01 16:36:15;;;;;;;;;;;;;;;24.61;47.49;96465.66;4229665;27;5581;-78
2023/07/01 16:38:27;;;;;;;;;;;;;;;24.60;47.63;96477.56;4234536;28;5633;-78
2023/07/01 16:40:46;;;;;;;;;;;;;;;24.60;47.47;96464.03;4227499;27;5823;-78
2023/07/01 16:42:52;;;;;;;;;;;;;;;24.59;47.69;96468.66;4219776;28;5746;-78
2023/07/01 16:44:57;;;;;;;;;;;;;;;24.59;47.75;96467.84;4230064;27;5745;-78
2023/07/01 16:47:00;;;;;;;;;;;;;;;24.59;47.42;96470.53;4226818;28;5872;-78
2023/07/01 16:49:05;;;;;;;;;;;;;;;24.58;47.97;96466.25;4230209;28;5652;-78
2023/07/01 16:51:09;;;;;;;;;;;;;;;24.56;47.66;96463.00;4226884;28;5748;-78
2023/07/01 16:53:18;;;;;;;;;;;;;;;24.57;47.90;96464.59;4226686;27;5747;-78
2023/07/01 16:55:39;;;;;;;;;;;;;;;24.57;47.81;96475.41;4235095;28;5669;-78
2023/07/01 16:57:46;;;;;;;;;;;;;;;24.56;48.09;96466.50;4231226;27;5667;-78
2023/07/01 16:59:54;;;;;;;;;;;;;;;24.46;47.94;96455.81;4234408;27;5628;-78
2023/07/01 17:02:19;;;;;;;;;;;;;;;24.45;48.14;96456.13;4214956;28;5989;-78
2023/07/01 17:04:28;;;;;;;;;;;;;;;24.50;48.13;96466.88;4232125;28;7079;-78
2023/07/01 17:06:44;;;;;;;;;;;;;;;24.55;47.96;96477.59;4230062;28;5668;-77
2023/07/01 17:08:52;;;;;;;;;;;;;;;24.55;48.21;96472.19;4208618;28;5967;-77
2023/07/01 17:10:55;;;;;;;;;;;;;;;24.55;48.15;96466.78;4224496;27;5742;-79
2023/07/01 17:12:59;;;;;;;;;;;;;;;24.54;47.89;96476.00;4222806;27;5610;-79
2023/07/01 17:15:11;;;;;;;;;;;;;;;24.53;48.47;96461.69;4221227;27;5623;-78
2023/07/01 17:17:41;;;;;;;;;;;;;;;24.54;48.62;96460.59;4230852;27;6283;-76
2023/07/01 17:19:44;;;;;;;;;;;;;;;24.52;48.48;96457.38;4227753;27;5597;-75
2023/07/01 17:21:48;;;;;;;;;;;;;;;24.54;48.85;96465.19;4232892;27;5943;-76
2023/07/01 17:23:51;;;;;;;;;;;;;;;24.54;48.32;96465.19;4208816;28;5912;-75
2023/07/01 17:25:57;;;;;;;;;;;;;;;24.56;48.88;96473.81;4220225;27;5649;-71
2023/07/01 17:28:01;;;;;;;;;;;;;;;24.56;48.74;96479.22;4228272;28;5608;-74
2023/07/01 17:30:07;;;;;;;;;;;;;;;24.57;48.62;96484.31;4228201;27;5672;-78
2023/07/01 17:32:12;;;;;;;;;;;;;;;24.59;48.51;96484.06;4228529;27;5604;-76
2023/07/01 17:34:27;;;;;;;;;;;;;;;24.59;48.57;96484.84;4234303;28;5605;-75
2023/07/01 17:36:31;;;;;;;;;;;;;;;24.58;48.82;96480.56;4230999;27;5724;-74